sensor_id;sensor_type;location;lat;lon;timestamp;P1;durP1;ratioP1;P2;durP2;ratioP2
32637;SDS011;19045;52.268;10.506;2023-04-06T00:00:16;10.07;;;4.78;;
32637;SDS011;19045;52.268;10.506;2023-04-06T00:02:43;8.00;;;4.70;;
32637;SDS011;19045;52.268;10.506;2023-04-06T00:05:09;6.75;;;4.32;;
32637;SDS011;19045;52.268;10.506;2023-04-06T00:07:45;13.82;;;5.43;;
32637;SDS011;19045;52.268;10.506;2023-04-06T00:10:25;7.43;;;4.78;;
32637;SDS011;19045;52.268;10.506;2023-04-06T00:12:52;9.07;;;4.78;;
32637;SDS011;19045;52.268;10.506;2023-04-06T00:15:22;7.50;;;4.95;;
32637;SDS011;19045;52.268;10.506;2023-04-06T00:17:49;12.00;;;5.55;;
32637;SDS011;19045;52.268;10.506;2023-04-06T00:20:37;7.55;;;4.50;;
32637;SDS011;19045;52.268;10.506;2023-04-06T00:23:04;13.55;;;5.95;;
32637;SDS011;19045;52.268;10.506;2023-04-06T00:25:37;12.70;;;5.65;;
32637;SDS011;19045;52.268;10.506;2023-04-06T00:28:09;9.23;;;5.60;;
32637;SDS011;19045;52.268;10.506;2023-04-06T00:30:35;7.55;;;5.10;;
32637;SDS011;19045;52.268;10.506;2023-04-06T00:33:02;9.00;;;5.18;;
32637;SDS011;19045;52.268;10.506;2023-04-06T00:35:29;8.07;;;4.97;;
32637;SDS011;19045;52.268;10.506;2023-04-06T00:37:56;9.93;;;5.60;;
32637;SDS011;19045;52.268;10.506;2023-04-06T00:40:22;10.23;;;5.43;;
32637;SDS011;19045;52.268;10.506;2023-04-06T00:42:51;10.07;;;5.78;;
32637;SDS011;19045;52.268;10.506;2023-04-06T00:45:17;9.88;;;5.95;;
32637;SDS011;19045;52.268;10.506;2023-04-06T00:47:44;9.90;;;6.03;;
32637;SDS011;19045;52.268;10.506;2023-04-06T00:50:11;8.27;;;4.85;;
32637;SDS011;19045;52.268;10.506;2023-04-06T00:52:38;11.10;;;5.65;;
32637;SDS011;19045;52.268;10.506;2023-04-06T00:55:05;9.25;;;5.43;;
32637;SDS011;19045;52.268;10.506;2023-04-06T00:57:32;12.80;;;5.55;;
32637;SDS011;19045;52.268;10.506;2023-04-06T01:00:00;11.90;;;5.75;;
32637;SDS011;19045;52.268;10.506;2023-04-06T01:02:28;11.93;;;5.72;;
32637;SDS011;19045;52.268;10.506;2023-04-06T01:04:55;8.82;;;5.35;;
32637;SDS011;19045;52.268;10.506;2023-04-06T01:07:22;8.70;;;5.55;;
32637;SDS011;19045;52.268;10.506;2023-04-06T01:09:52;11.82;;;5.78;;
32637;SDS011;19045;52.268;10.506;2023-04-06T01:12:24;9.23;;;5.82;;
32637;SDS011;19045;52.268;10.506;2023-04-06T01:14:52;9.32;;;6.07;;
32637;SDS011;19045;52.268;10.506;2023-04-06T01:17:35;11.93;;;5.93;;
32637;SDS011;19045;52.268;10.506;2023-04-06T01:20:02;8.55;;;5.10;;
32637;SDS011;19045;52.268;10.506;2023-04-06T01:22:33;7.07;;;5.22;;
32637;SDS011;19045;52.268;10.506;2023-04-06T01:25:00;9.27;;;5.47;;
32637;SDS011;19045;52.268;10.506;2023-04-06T01:27:26;11.07;;;5.80;;
32637;SDS011;19045;52.268;10.506;2023-04-06T01:29:54;8.68;;;4.88;;
32637;SDS011;19045;52.268;10.506;2023-04-06T01:32:21;10.75;;;6.20;;
32637;SDS011;19045;52.268;10.506;2023-04-06T01:34:48;9.13;;;5.32;;
32637;SDS011;19045;52.268;10.506;2023-04-06T01:37:15;8.48;;;5.63;;
32637;SDS011;19045;52.268;10.506;2023-04-06T01:39:43;9.60;;;6.03;;
32637;SDS011;19045;52.268;10.506;2023-04-06T01:42:10;9.45;;;5.13;;
32637;SDS011;19045;52.268;10.506;2023-04-06T01:44:37;6.30;;;4.82;;
32637;SDS011;19045;52.268;10.506;2023-04-06T01:47:03;8.15;;;6.05;;
32637;SDS011;19045;52.268;10.506;2023-04-06T01:49:30;10.40;;;5.72;;
32637;SDS011;19045;52.268;10.506;2023-04-06T01:51:57;12.43;;;5.57;;
32637;SDS011;19045;52.268;10.506;2023-04-06T01:54:24;8.52;;;5.45;;
32637;SDS011;19045;52.268;10.506;2023-04-06T01:56:52;10.98;;;6.20;;
32637;SDS011;19045;52.268;10.506;2023-04-06T01:59:19;8.25;;;5.65;;
32637;SDS011;19045;52.268;10.506;2023-04-06T02:01:46;11.13;;;6.18;;
32637;SDS011;19045;52.268;10.506;2023-04-06T02:04:12;8.65;;;6.03;;
32637;SDS011;19045;52.268;10.506;2023-04-06T02:06:39;9.70;;;5.97;;
32637;SDS011;19045;52.268;10.506;2023-04-06T02:09:06;13.13;;;6.18;;
32637;SDS011;19045;52.268;10.506;2023-04-06T02:11:33;9.93;;;6.40;;
32637;SDS011;19045;52.268;10.506;2023-04-06T02:14:01;10.38;;;6.43;;
32637;SDS011;19045;52.268;10.506;2023-04-06T02:16:28;10.00;;;6.28;;
32637;SDS011;19045;52.268;10.506;2023-04-06T02:18:55;13.15;;;6.28;;
32637;SDS011;19045;52.268;10.506;2023-04-06T02:21:22;10.15;;;6.32;;
32637;SDS011;19045;52.268;10.506;2023-04-06T02:23:48;13.15;;;6.18;;
32637;SDS011;19045;52.268;10.506;2023-04-06T02:26:15;8.88;;;5.68;;
32637;SDS011;19045;52.268;10.506;2023-04-06T02:28:42;12.02;;;6.22;;
32637;SDS011;19045;52.268;10.506;2023-04-06T02:31:10;12.07;;;6.13;;
32637;SDS011;19045;52.268;10.506;2023-04-06T02:33:36;10.68;;;6.60;;
32637;SDS011;19045;52.268;10.506;2023-04-06T02:36:03;9.30;;;6.45;;
32637;SDS011;19045;52.268;10.506;2023-04-06T02:38:30;16.33;;;7.15;;
32637;SDS011;19045;52.268;10.506;2023-04-06T02:40:57;8.68;;;6.32;;
32637;SDS011;19045;52.268;10.506;2023-04-06T02:43:23;11.20;;;6.90;;
32637;SDS011;19045;52.268;10.506;2023-04-06T02:45:50;11.98;;;7.32;;
32637;SDS011;19045;52.268;10.506;2023-04-06T02:48:18;15.50;;;7.28;;
32637;SDS011;19045;52.268;10.506;2023-04-06T02:50:45;11.98;;;6.68;;
32637;SDS011;19045;52.268;10.506;2023-04-06T02:53:11;11.93;;;6.85;;
32637;SDS011;19045;52.268;10.506;2023-04-06T02:55:38;14.35;;;7.80;;
32637;SDS011;19045;52.268;10.506;2023-04-06T02:58:05;11.10;;;6.40;;
32637;SDS011;19045;52.268;10.506;2023-04-06T03:00:32;17.25;;;6.32;;
32637;SDS011;19045;52.268;10.506;2023-04-06T03:02:58;10.23;;;6.68;;
32637;SDS011;19045;52.268;10.506;2023-04-06T03:05:26;12.05;;;7.43;;
32637;SDS011;19045;52.268;10.506;2023-04-06T03:07:55;10.27;;;6.78;;
32637;SDS011;19045;52.268;10.506;2023-04-06T03:10:22;9.70;;;6.78;;
32637;SDS011;19045;52.268;10.506;2023-04-06T03:12:49;7.93;;;6.38;;
32637;SDS011;19045;52.268;10.506;2023-04-06T03:15:15;10.27;;;6.72;;
32637;SDS011;19045;52.268;10.506;2023-04-06T03:17:42;9.73;;;6.75;;
32637;SDS011;19045;52.268;10.506;2023-04-06T03:20:09;12.82;;;7.72;;
32637;SDS011;19045;52.268;10.506;2023-04-06T03:22:37;11.57;;;7.05;;
32637;SDS011;19045;52.268;10.506;2023-04-06T03:25:04;12.68;;;7.32;;
32637;SDS011;19045;52.268;10.506;2023-04-06T03:27:31;8.85;;;6.72;;
32637;SDS011;19045;52.268;10.506;2023-04-06T03:29:58;11.00;;;6.93;;
32637;SDS011;19045;52.268;10.506;2023-04-06T03:32:25;10.30;;;6.90;;
32637;SDS011;19045;52.268;10.506;2023-04-06T03:34:52;12.45;;;7.10;;
32637;SDS011;19045;52.268;10.506;2023-04-06T03:37:18;13.23;;;7.93;;
32637;SDS011;19045;52.268;10.506;2023-04-06T03:39:46;11.95;;;7.38;;
32637;SDS011;19045;52.268;10.506;2023-04-06T03:42:13;11.18;;;7.43;;
32637;SDS011;19045;52.268;10.506;2023-04-06T03:44:40;11.35;;;7.40;;
32637;SDS011;19045;52.268;10.506;2023-04-06T03:47:07;11.55;;;7.65;;
32637;SDS011;19045;52.268;10.506;2023-04-06T03:49:33;12.93;;;7.60;;
32637;SDS011;19045;52.268;10.506;2023-04-06T03:52:00;13.68;;;7.97;;
32637;SDS011;19045;52.268;10.506;2023-04-06T03:54:28;12.77;;;7.85;;
32637;SDS011;19045;52.268;10.506;2023-04-06T03:56:56;12.40;;;7.93;;
32637;SDS011;19045;52.268;10.506;2023-04-06T03:59:23;13.90;;;8.00;;
32637;SDS011;19045;52.268;10.506;2023-04-06T04:01:50;10.35;;;7.97;;
32637;SDS011;19045;52.268;10.506;2023-04-06T04:04:16;9.88;;;7.88;;
32637;SDS011;19045;52.268;10.506;2023-04-06T04:06:43;10.52;;;7.72;;
32637;SDS011;19045;52.268;10.506;2023-04-06T04:09:10;14.32;;;8.50;;
32637;SDS011;19045;52.268;10.506;2023-04-06T04:11:37;14.45;;;8.60;;
32637;SDS011;19045;52.268;10.506;2023-04-06T04:14:05;12.07;;;8.25;;
32637;SDS011;19045;52.268;10.506;2023-04-06T04:16:31;13.32;;;8.25;;
32637;SDS011;19045;52.268;10.506;2023-04-06T04:18:58;11.77;;;8.05;;
32637;SDS011;19045;52.268;10.506;2023-04-06T04:21:25;13.73;;;8.30;;
32637;SDS011;19045;52.268;10.506;2023-04-06T04:23:51;12.40;;;7.95;;
32637;SDS011;19045;52.268;10.506;2023-04-06T04:26:18;12.40;;;7.82;;
32637;SDS011;19045;52.268;10.506;2023-04-06T04:28:45;16.30;;;8.63;;
32637;SDS011;19045;52.268;10.506;2023-04-06T04:31:13;12.85;;;8.65;;
32637;SDS011;19045;52.268;10.506;2023-04-06T04:33:40;12.88;;;8.43;;
32637;SDS011;19045;52.268;10.506;2023-04-06T04:36:07;13.40;;;8.93;;
32637;SDS011;19045;52.268;10.506;2023-04-06T04:38:35;11.18;;;8.45;;
32637;SDS011;19045;52.268;10.506;2023-04-06T04:41:02;12.23;;;8.60;;
32637;SDS011;19045;52.268;10.506;2023-04-06T04:43:28;12.48;;;7.95;;
32637;SDS011;19045;52.268;10.506;2023-04-06T04:45:55;15.80;;;9.00;;
32637;SDS011;19045;52.268;10.506;2023-04-06T04:48:25;11.20;;;8.70;;
32637;SDS011;19045;52.268;10.506;2023-04-06T04:50:52;12.23;;;8.98;;
32637;SDS011;19045;52.268;10.506;2023-04-06T04:53:20;11.73;;;8.35;;
32637;SDS011;19045;52.268;10.506;2023-04-06T04:55:47;12.98;;;9.02;;
32637;SDS011;19045;52.268;10.506;2023-04-06T04:58:14;14.55;;;8.95;;
32637;SDS011;19045;52.268;10.506;2023-04-06T05:00:41;12.32;;;8.70;;
32637;SDS011;19045;52.268;10.506;2023-04-06T05:03:08;12.02;;;8.82;;
32637;SDS011;19045;52.268;10.506;2023-04-06T05:05:41;13.85;;;9.15;;
32637;SDS011;19045;52.268;10.506;2023-04-06T05:08:08;13.48;;;9.88;;
32637;SDS011;19045;52.268;10.506;2023-04-06T05:10:35;15.55;;;9.60;;
32637;SDS011;19045;52.268;10.506;2023-04-06T05:13:01;14.05;;;8.82;;
32637;SDS011;19045;52.268;10.506;2023-04-06T05:15:28;12.35;;;9.15;;
32637;SDS011;19045;52.268;10.506;2023-04-06T05:17:55;13.20;;;9.13;;
32637;SDS011;19045;52.268;10.506;2023-04-06T05:20:21;12.57;;;8.85;;
32637;SDS011;19045;52.268;10.506;2023-04-06T05:22:50;14.68;;;9.43;;
32637;SDS011;19045;52.268;10.506;2023-04-06T05:25:16;14.95;;;8.43;;
32637;SDS011;19045;52.268;10.506;2023-04-06T05:27:43;16.17;;;9.02;;
32637;SDS011;19045;52.268;10.506;2023-04-06T05:30:10;10.40;;;8.57;;
32637;SDS011;19045;52.268;10.506;2023-04-06T05:32:37;12.75;;;8.77;;
32637;SDS011;19045;52.268;10.506;2023-04-06T05:35:04;16.38;;;9.77;;
32637;SDS011;19045;52.268;10.506;2023-04-06T05:37:31;15.10;;;8.00;;
32637;SDS011;19045;52.268;10.506;2023-04-06T05:40:00;12.23;;;8.88;;
32637;SDS011;19045;52.268;10.506;2023-04-06T05:42:27;13.02;;;8.45;;
32637;SDS011;19045;52.268;10.506;2023-04-06T05:44:54;9.18;;;8.07;;
32637;SDS011;19045;52.268;10.506;2023-04-06T05:47:21;13.68;;;8.18;;
32637;SDS011;19045;52.268;10.506;2023-04-06T05:49:48;10.90;;;8.20;;
32637;SDS011;19045;52.268;10.506;2023-04-06T05:52:15;10.85;;;8.20;;
32637;SDS011;19045;52.268;10.506;2023-04-06T05:54:41;11.32;;;8.00;;
32637;SDS011;19045;52.268;10.506;2023-04-06T05:57:09;11.60;;;7.82;;
32637;SDS011;19045;52.268;10.506;2023-04-06T05:59:36;10.73;;;8.73;;
32637;SDS011;19045;52.268;10.506;2023-04-06T06:02:03;14.55;;;8.43;;
32637;SDS011;19045;52.268;10.506;2023-04-06T06:04:30;13.02;;;8.98;;
32637;SDS011;19045;52.268;10.506;2023-04-06T06:06:57;13.80;;;8.55;;
32637;SDS011;19045;52.268;10.506;2023-04-06T06:09:23;10.05;;;7.80;;
32637;SDS011;19045;52.268;10.506;2023-04-06T06:11:51;10.13;;;7.85;;
32637;SDS011;19045;52.268;10.506;2023-04-06T06:14:19;14.15;;;7.38;;
32637;SDS011;19045;52.268;10.506;2023-04-06T06:16:46;15.55;;;8.02;;
32637;SDS011;19045;52.268;10.506;2023-04-06T06:19:13;12.35;;;8.55;;
32637;SDS011;19045;52.268;10.506;2023-04-06T06:21:40;16.63;;;8.07;;
32637;SDS011;19045;52.268;10.506;2023-04-06T06:24:07;10.73;;;7.60;;
32637;SDS011;19045;52.268;10.506;2023-04-06T06:26:34;8.77;;;6.93;;
32637;SDS011;19045;52.268;10.506;2023-04-06T06:29:02;11.05;;;7.10;;
32637;SDS011;19045;52.268;10.506;2023-04-06T06:31:31;13.27;;;6.82;;
32637;SDS011;19045;52.268;10.506;2023-04-06T06:33:58;14.35;;;8.02;;
32637;SDS011;19045;52.268;10.506;2023-04-06T06:36:25;9.00;;;6.97;;
32637;SDS011;19045;52.268;10.506;2023-04-06T06:38:52;10.35;;;7.75;;
32637;SDS011;19045;52.268;10.506;2023-04-06T06:41:18;12.55;;;7.72;;
32637;SDS011;19045;52.268;10.506;2023-04-06T06:43:45;14.32;;;7.57;;
32637;SDS011;19045;52.268;10.506;2023-04-06T06:46:12;11.82;;;7.20;;
32637;SDS011;19045;52.268;10.506;2023-04-06T06:48:40;14.15;;;8.48;;
32637;SDS011;19045;52.268;10.506;2023-04-06T06:51:07;9.63;;;6.38;;
32637;SDS011;19045;52.268;10.506;2023-04-06T06:53:34;10.40;;;6.88;;
32637;SDS011;19045;52.268;10.506;2023-04-06T06:56:01;9.27;;;7.82;;
32637;SDS011;19045;52.268;10.506;2023-04-06T06:58:28;9.70;;;7.10;;
32637;SDS011;19045;52.268;10.506;2023-04-06T07:00:55;11.05;;;7.40;;
32637;SDS011;19045;52.268;10.506;2023-04-06T07:03:23;11.90;;;6.55;;
32637;SDS011;19045;52.268;10.506;2023-04-06T07:05:51;10.98;;;7.50;;
32637;SDS011;19045;52.268;10.506;2023-04-06T07:08:19;10.15;;;7.00;;
32637;SDS011;19045;52.268;10.506;2023-04-06T07:10:45;10.10;;;6.80;;
32637;SDS011;19045;52.268;10.506;2023-04-06T07:13:12;10.35;;;6.30;;
32637;SDS011;19045;52.268;10.506;2023-04-06T07:15:43;8.85;;;6.50;;
32637;SDS011;19045;52.268;10.506;2023-04-06T07:18:09;14.68;;;6.82;;
32637;SDS011;19045;52.268;10.506;2023-04-06T07:20:36;8.63;;;6.40;;
32637;SDS011;19045;52.268;10.506;2023-04-06T07:23:04;11.10;;;7.20;;
32637;SDS011;19045;52.268;10.506;2023-04-06T07:25:31;9.52;;;6.60;;
32637;SDS011;19045;52.268;10.506;2023-04-06T07:27:57;9.27;;;6.68;;
32637;SDS011;19045;52.268;10.506;2023-04-06T07:30:24;11.68;;;6.78;;
32637;SDS011;19045;52.268;10.506;2023-04-06T07:32:52;9.10;;;6.93;;
32637;SDS011;19045;52.268;10.506;2023-04-06T07:35:20;11.98;;;6.93;;
32637;SDS011;19045;52.268;10.506;2023-04-06T07:37:47;10.82;;;6.70;;
32637;SDS011;19045;52.268;10.506;2023-04-06T07:40:15;10.23;;;6.47;;
32637;SDS011;19045;52.268;10.506;2023-04-06T07:42:43;8.63;;;6.07;;
32637;SDS011;19045;52.268;10.506;2023-04-06T07:45:10;8.38;;;6.32;;
32637;SDS011;19045;52.268;10.506;2023-04-06T07:47:37;9.95;;;6.40;;
32637;SDS011;19045;52.268;10.506;2023-04-06T07:50:04;14.10;;;6.43;;
32637;SDS011;19045;52.268;10.506;2023-04-06T07:52:31;8.65;;;6.80;;
32637;SDS011;19045;52.268;10.506;2023-04-06T07:54:58;8.23;;;6.53;;
32637;SDS011;19045;52.268;10.506;2023-04-06T07:57:26;8.40;;;6.43;;
32637;SDS011;19045;52.268;10.506;2023-04-06T07:59:53;7.38;;;5.75;;
32637;SDS011;19045;52.268;10.506;2023-04-06T08:02:19;11.73;;;6.80;;
32637;SDS011;19045;52.268;10.506;2023-04-06T08:04:47;9.63;;;6.03;;
32637;SDS011;19045;52.268;10.506;2023-04-06T08:07:13;12.90;;;7.53;;
32637;SDS011;19045;52.268;10.506;2023-04-06T08:09:40;10.32;;;6.05;;
32637;SDS011;19045;52.268;10.506;2023-04-06T08:12:07;8.85;;;6.53;;
32637;SDS011;19045;52.268;10.506;2023-04-06T08:14:35;12.25;;;7.25;;
32637;SDS011;19045;52.268;10.506;2023-04-06T08:17:02;10.80;;;6.20;;
32637;SDS011;19045;52.268;10.506;2023-04-06T08:19:29;9.88;;;6.43;;
32637;SDS011;19045;52.268;10.506;2023-04-06T08:21:55;16.73;;;6.80;;
32637;SDS011;19045;52.268;10.506;2023-04-06T08:24:22;10.25;;;6.82;;
32637;SDS011;19045;52.268;10.506;2023-04-06T08:26:49;8.68;;;6.50;;
32637;SDS011;19045;52.268;10.506;2023-04-06T08:29:16;11.20;;;6.03;;
32637;SDS011;19045;52.268;10.506;2023-04-06T08:31:44;13.13;;;7.15;;
32637;SDS011;19045;52.268;10.506;2023-04-06T08:34:11;9.82;;;6.57;;
32637;SDS011;19045;52.268;10.506;2023-04-06T08:36:37;7.93;;;6.60;;
32637;SDS011;19045;52.268;10.506;2023-04-06T08:39:04;11.10;;;6.43;;
32637;SDS011;19045;52.268;10.506;2023-04-06T08:41:31;20.52;;;7.05;;
32637;SDS011;19045;52.268;10.506;2023-04-06T08:43:58;12.75;;;6.78;;
32637;SDS011;19045;52.268;10.506;2023-04-06T08:46:27;9.82;;;6.40;;
32637;SDS011;19045;52.268;10.506;2023-04-06T08:48:57;10.15;;;6.53;;
32637;SDS011;19045;52.268;10.506;2023-04-06T08:51:25;8.10;;;6.53;;
32637;SDS011;19045;52.268;10.506;2023-04-06T08:53:53;15.52;;;6.95;;
32637;SDS011;19045;52.268;10.506;2023-04-06T08:56:20;13.20;;;6.85;;
32637;SDS011;19045;52.268;10.506;2023-04-06T08:58:48;9.23;;;6.55;;
32637;SDS011;19045;52.268;10.506;2023-04-06T09:01:16;12.20;;;7.07;;
32637;SDS011;19045;52.268;10.506;2023-04-06T09:03:46;11.02;;;6.32;;
32637;SDS011;19045;52.268;10.506;2023-04-06T09:06:17;11.80;;;7.50;;
32637;SDS011;19045;52.268;10.506;2023-04-06T09:08:44;11.85;;;7.72;;
32637;SDS011;19045;52.268;10.506;2023-04-06T09:11:11;8.63;;;5.90;;
32637;SDS011;19045;52.268;10.506;2023-04-06T09:13:44;12.40;;;6.65;;
32637;SDS011;19045;52.268;10.506;2023-04-06T09:16:13;8.00;;;6.35;;
32637;SDS011;19045;52.268;10.506;2023-04-06T09:18:40;9.48;;;6.28;;
32637;SDS011;19045;52.268;10.506;2023-04-06T09:21:07;11.10;;;6.25;;
32637;SDS011;19045;52.268;10.506;2023-04-06T09:23:36;8.20;;;6.10;;
32637;SDS011;19045;52.268;10.506;2023-04-06T09:26:08;12.40;;;6.45;;
32637;SDS011;19045;52.268;10.506;2023-04-06T09:28:42;9.00;;;5.70;;
32637;SDS011;19045;52.268;10.506;2023-04-06T09:31:14;10.70;;;6.57;;
32637;SDS011;19045;52.268;10.506;2023-04-06T09:33:43;10.43;;;6.40;;
32637;SDS011;19045;52.268;10.506;2023-04-06T09:36:12;8.13;;;5.53;;
32637;SDS011;19045;52.268;10.506;2023-04-06T09:38:52;7.63;;;5.88;;
32637;SDS011;19045;52.268;10.506;2023-04-06T09:41:20;10.88;;;6.03;;
32637;SDS011;19045;52.268;10.506;2023-04-06T09:43:49;7.25;;;5.55;;
32637;SDS011;19045;52.268;10.506;2023-04-06T09:46:17;7.38;;;5.13;;
32637;SDS011;19045;52.268;10.506;2023-04-06T09:48:46;11.07;;;5.97;;
32637;SDS011;19045;52.268;10.506;2023-04-06T09:51:14;10.57;;;5.30;;
32637;SDS011;19045;52.268;10.506;2023-04-06T09:53:42;8.45;;;5.03;;
32637;SDS011;19045;52.268;10.506;2023-04-06T09:56:17;9.60;;;4.78;;
32637;SDS011;19045;52.268;10.506;2023-04-06T09:58:49;10.57;;;5.47;;
32637;SDS011;19045;52.268;10.506;2023-04-06T10:01:19;7.57;;;4.80;;
32637;SDS011;19045;52.268;10.506;2023-04-06T10:03:49;6.60;;;5.00;;
32637;SDS011;19045;52.268;10.506;2023-04-06T10:06:32;7.75;;;4.93;;
32637;SDS011;19045;52.268;10.506;2023-04-06T10:09:02;8.65;;;5.22;;
32637;SDS011;19045;52.268;10.506;2023-04-06T10:14:01;7.28;;;5.07;;
32637;SDS011;19045;52.268;10.506;2023-04-06T10:16:27;12.38;;;5.65;;
32637;SDS011;19045;52.268;10.506;2023-04-06T10:18:56;8.70;;;5.40;;
32637;SDS011;19045;52.268;10.506;2023-04-06T10:21:28;7.78;;;5.47;;
32637;SDS011;19045;52.268;10.506;2023-04-06T10:23:58;9.27;;;5.47;;
32637;SDS011;19045;52.268;10.506;2023-04-06T10:26:26;9.73;;;6.10;;
32637;SDS011;19045;52.268;10.506;2023-04-06T10:28:55;7.72;;;5.25;;
32637;SDS011;19045;52.268;10.506;2023-04-06T10:31:29;7.57;;;5.32;;
32637;SDS011;19045;52.268;10.506;2023-04-06T10:33:56;6.53;;;4.57;;
32637;SDS011;19045;52.268;10.506;2023-04-06T10:36:24;8.25;;;5.35;;
32637;SDS011;19045;52.268;10.506;2023-04-06T10:38:56;7.88;;;5.35;;
32637;SDS011;19045;52.268;10.506;2023-04-06T10:41:24;9.65;;;4.88;;
32637;SDS011;19045;52.268;10.506;2023-04-06T10:44:00;8.75;;;4.65;;
32637;SDS011;19045;52.268;10.506;2023-04-06T10:46:29;5.28;;;3.72;;
32637;SDS011;19045;52.268;10.506;2023-04-06T10:48:56;6.45;;;5.03;;
32637;SDS011;19045;52.268;10.506;2023-04-06T10:51:25;7.95;;;4.82;;
32637;SDS011;19045;52.268;10.506;2023-04-06T10:53:54;7.20;;;5.13;;
32637;SDS011;19045;52.268;10.506;2023-04-06T10:56:22;5.57;;;4.13;;
32637;SDS011;19045;52.268;10.506;2023-04-06T10:58:52;7.38;;;4.82;;
32637;SDS011;19045;52.268;10.506;2023-04-06T11:01:22;7.47;;;4.30;;
32637;SDS011;19045;52.268;10.506;2023-04-06T11:03:52;7.18;;;4.88;;
32637;SDS011;19045;52.268;10.506;2023-04-06T11:06:21;7.25;;;5.32;;
32637;SDS011;19045;52.268;10.506;2023-04-06T11:08:48;7.30;;;4.70;;
32637;SDS011;19045;52.268;10.506;2023-04-06T11:11:16;10.13;;;5.15;;
32637;SDS011;19045;52.268;10.506;2023-04-06T11:13:45;8.13;;;5.22;;
32637;SDS011;19045;52.268;10.506;2023-04-06T11:16:13;8.25;;;4.97;;
32637;SDS011;19045;52.268;10.506;2023-04-06T11:18:49;7.55;;;5.38;;
32637;SDS011;19045;52.268;10.506;2023-04-06T11:21:17;9.40;;;4.88;;
32637;SDS011;19045;52.268;10.506;2023-04-06T11:23:44;6.10;;;4.70;;
32637;SDS011;19045;52.268;10.506;2023-04-06T11:26:11;7.30;;;4.85;;
32637;SDS011;19045;52.268;10.506;2023-04-06T11:28:39;6.65;;;4.90;;
32637;SDS011;19045;52.268;10.506;2023-04-06T11:31:07;6.63;;;5.03;;
32637;SDS011;19045;52.268;10.506;2023-04-06T11:33:35;7.38;;;4.85;;
32637;SDS011;19045;52.268;10.506;2023-04-06T11:36:05;8.32;;;5.13;;
32637;SDS011;19045;52.268;10.506;2023-04-06T11:38:33;7.18;;;4.93;;
32637;SDS011;19045;52.268;10.506;2023-04-06T11:41:00;10.73;;;5.40;;
32637;SDS011;19045;52.268;10.506;2023-04-06T11:43:27;9.68;;;5.32;;
32637;SDS011;19045;52.268;10.506;2023-04-06T11:45:59;7.78;;;5.22;;
32637;SDS011;19045;52.268;10.506;2023-04-06T11:48:27;13.10;;;5.80;;
32637;SDS011;19045;52.268;10.506;2023-04-06T11:50:57;7.25;;;5.20;;
32637;SDS011;19045;52.268;10.506;2023-04-06T11:53:27;6.38;;;5.07;;
32637;SDS011;19045;52.268;10.506;2023-04-06T11:55:55;10.02;;;5.53;;
32637;SDS011;19045;52.268;10.506;2023-04-06T11:58:22;6.07;;;5.22;;
32637;SDS011;19045;52.268;10.506;2023-04-06T12:00:48;8.90;;;5.72;;
32637;SDS011;19045;52.268;10.506;2023-04-06T12:03:15;7.65;;;5.75;;
32637;SDS011;19045;52.268;10.506;2023-04-06T12:05:43;7.68;;;5.65;;
32637;SDS011;19045;52.268;10.506;2023-04-06T12:08:10;7.78;;;6.25;;
32637;SDS011;19045;52.268;10.506;2023-04-06T12:10:38;9.63;;;6.68;;
32637;SDS011;19045;52.268;10.506;2023-04-06T12:13:05;9.40;;;6.88;;
32637;SDS011;19045;52.268;10.506;2023-04-06T12:15:32;8.70;;;6.30;;
32637;SDS011;19045;52.268;10.506;2023-04-06T12:17:58;8.10;;;6.22;;
32637;SDS011;19045;52.268;10.506;2023-04-06T12:20:25;9.88;;;6.53;;
32637;SDS011;19045;52.268;10.506;2023-04-06T12:22:52;8.85;;;5.95;;
32637;SDS011;19045;52.268;10.506;2023-04-06T12:25:19;9.35;;;5.82;;
32637;SDS011;19045;52.268;10.506;2023-04-06T12:27:48;8.07;;;6.03;;
32637;SDS011;19045;52.268;10.506;2023-04-06T12:30:15;9.07;;;6.20;;
32637;SDS011;19045;52.268;10.506;2023-04-06T12:32:42;11.93;;;6.47;;
32637;SDS011;19045;52.268;10.506;2023-04-06T12:35:08;8.65;;;5.72;;
32637;SDS011;19045;52.268;10.506;2023-04-06T12:37:36;10.00;;;6.80;;
32637;SDS011;19045;52.268;10.506;2023-04-06T12:40:04;10.70;;;6.55;;
32637;SDS011;19045;52.268;10.506;2023-04-06T12:42:32;8.85;;;6.07;;
32637;SDS011;19045;52.268;10.506;2023-04-06T12:45:00;7.63;;;6.03;;
32637;SDS011;19045;52.268;10.506;2023-04-06T12:47:27;8.38;;;5.60;;
32637;SDS011;19045;52.268;10.506;2023-04-06T12:49:53;10.55;;;6.30;;
32637;SDS011;19045;52.268;10.506;2023-04-06T12:52:20;9.73;;;6.32;;
32637;SDS011;19045;52.268;10.506;2023-04-06T12:54:47;8.38;;;6.00;;
32637;SDS011;19045;52.268;10.506;2023-04-06T12:57:14;9.00;;;6.03;;
32637;SDS011;19045;52.268;10.506;2023-04-06T12:59:42;11.13;;;6.35;;
32637;SDS011;19045;52.268;10.506;2023-04-06T13:02:11;8.25;;;5.45;;
32637;SDS011;19045;52.268;10.506;2023-04-06T13:04:37;11.23;;;6.45;;
32637;SDS011;19045;52.268;10.506;2023-04-06T13:07:04;9.13;;;5.80;;
32637;SDS011;19045;52.268;10.506;2023-04-06T13:09:31;9.50;;;5.75;;
32637;SDS011;19045;52.268;10.506;2023-04-06T13:11:58;6.93;;;5.20;;
32637;SDS011;19045;52.268;10.506;2023-04-06T13:14:26;7.43;;;5.53;;
32637;SDS011;19045;52.268;10.506;2023-04-06T13:16:52;12.73;;;5.45;;
32637;SDS011;19045;52.268;10.506;2023-04-06T13:19:21;9.73;;;5.82;;
32637;SDS011;19045;52.268;10.506;2023-04-06T13:21:47;10.50;;;6.68;;
32637;SDS011;19045;52.268;10.506;2023-04-06T13:24:14;8.15;;;5.47;;
32637;SDS011;19045;52.268;10.506;2023-04-06T13:26:41;8.68;;;5.03;;
32637;SDS011;19045;52.268;10.506;2023-04-06T13:29:08;8.75;;;5.78;;
32637;SDS011;19045;52.268;10.506;2023-04-06T13:31:35;8.20;;;5.05;;
32637;SDS011;19045;52.268;10.506;2023-04-06T13:34:01;7.47;;;4.50;;
32637;SDS011;19045;52.268;10.506;2023-04-06T13:36:29;8.02;;;5.65;;
32637;SDS011;19045;52.268;10.506;2023-04-06T13:38:56;9.75;;;5.75;;
32637;SDS011;19045;52.268;10.506;2023-04-06T13:41:25;9.20;;;5.47;;
32637;SDS011;19045;52.268;10.506;2023-04-06T13:43:52;7.72;;;5.63;;
32637;SDS011;19045;52.268;10.506;2023-04-06T13:46:19;7.95;;;5.45;;
32637;SDS011;19045;52.268;10.506;2023-04-06T13:48:47;5.78;;;4.75;;
32637;SDS011;19045;52.268;10.506;2023-04-06T13:51:14;8.45;;;5.72;;
32637;SDS011;19045;52.268;10.506;2023-04-06T13:53:42;11.75;;;5.90;;
32637;SDS011;19045;52.268;10.506;2023-04-06T13:56:09;6.68;;;5.45;;
32637;SDS011;19045;52.268;10.506;2023-04-06T13:58:36;8.20;;;4.63;;
32637;SDS011;19045;52.268;10.506;2023-04-06T14:01:03;8.88;;;5.85;;
32637;SDS011;19045;52.268;10.506;2023-04-06T14:03:31;6.70;;;4.97;;
32637;SDS011;19045;52.268;10.506;2023-04-06T14:06:00;8.65;;;5.38;;
32637;SDS011;19045;52.268;10.506;2023-04-06T14:08:26;9.77;;;5.43;;
32637;SDS011;19045;52.268;10.506;2023-04-06T14:10:54;9.98;;;5.85;;
32637;SDS011;19045;52.268;10.506;2023-04-06T14:13:21;7.93;;;5.82;;
32637;SDS011;19045;52.268;10.506;2023-04-06T14:15:52;12.00;;;5.85;;
32637;SDS011;19045;52.268;10.506;2023-04-06T14:18:20;10.00;;;5.55;;
32637;SDS011;19045;52.268;10.506;2023-04-06T14:20:53;9.15;;;5.78;;
32637;SDS011;19045;52.268;10.506;2023-04-06T14:23:20;7.82;;;5.80;;
32637;SDS011;19045;52.268;10.506;2023-04-06T14:25:46;9.63;;;6.57;;
32637;SDS011;19045;52.268;10.506;2023-04-06T14:28:15;9.15;;;5.95;;
32637;SDS011;19045;52.268;10.506;2023-04-06T14:30:41;13.30;;;5.82;;
32637;SDS011;19045;52.268;10.506;2023-04-06T14:33:08;11.20;;;6.10;;